createdAt,value
2018-05-08T07:17:45.464Z,16.20
2018-05-08T07:18:47.349Z,16.25
2018-05-08T07:19:49.237Z,16.33
2018-05-08T07:20:51.129Z,16.31
2018-05-08T07:21:52.941Z,16.33
2018-05-08T07:22:54.766Z,16.39
2018-05-08T07:23:56.719Z,16.45
2018-05-08T07:24:58.513Z,16.43
2018-05-08T07:26:00.384Z,16.61
2018-05-08T07:27:14.554Z,16.85
2018-05-08T07:28:16.452Z,16.81
2018-05-08T07:29:18.347Z,16.89
2018-05-08T07:30:20.243Z,16.98
2018-05-08T07:31:22.080Z,17.16
2018-05-08T07:32:23.915Z,17.37
2018-05-08T07:33:25.814Z,17.44
2018-05-08T07:34:27.708Z,17.63
2018-05-08T07:35:29.611Z,17.78
2018-05-08T07:36:43.788Z,17.93
2018-05-08T07:37:45.672Z,18.12
2018-05-08T07:38:47.553Z,18.21
2018-05-08T07:39:49.446Z,18.33
2018-05-08T07:40:51.263Z,18.45
2018-05-08T07:41:53.106Z,18.55
2018-05-08T07:42:54.977Z,18.70
2018-05-08T07:43:56.878Z,18.78
2018-05-08T07:44:58.812Z,18.81
2018-05-08T07:46:12.983Z,18.91
2018-05-08T07:47:14.880Z,19.04
2018-05-08T07:48:16.786Z,19.08
2018-05-08T07:49:18.685Z,19.10
2018-05-08T07:50:20.524Z,19.18
2018-05-08T07:51:22.359Z,19.23
2018-05-08T07:52:24.244Z,19.41
2018-05-08T07:53:26.135Z,19.40
2018-05-08T07:54:28.010Z,19.50
2018-05-08T07:55:42.234Z,19.55
2018-05-08T07:56:44.140Z,19.63
2018-05-08T07:57:46.009Z,19.59
2018-05-08T07:58:47.905Z,19.61
2018-05-08T07:59:49.723Z,19.61
2018-05-08T08:00:51.561Z,19.66
2018-05-08T08:01:53.451Z,19.78
2018-05-08T08:02:55.337Z,19.92
2018-05-08T08:03:57.242Z,19.88
2018-05-08T08:05:11.413Z,20.01
2018-05-08T08:06:13.310Z,19.84
2018-05-08T08:07:15.190Z,19.91
2018-05-08T08:08:17.079Z,19.95
2018-05-08T08:09:18.931Z,19.86
2018-05-08T08:10:20.766Z,19.86
2018-05-08T08:11:22.677Z,20.01
2018-05-08T08:12:24.669Z,20.06
2018-05-08T08:13:26.459Z,20.28
2018-05-08T08:14:40.614Z,20.29
2018-05-08T08:15:42.520Z,20.57
2018-05-08T08:16:44.417Z,20.58
2018-05-08T08:17:46.318Z,20.52
2018-05-08T08:18:48.160Z,20.41
2018-05-08T08:19:49.994Z,20.36
2018-05-08T08:20:51.874Z,20.36
2018-05-08T08:21:53.763Z,20.24
2018-05-08T08:22:55.639Z,20.31
2018-05-08T08:24:09.865Z,20.32
2018-05-08T08:25:11.763Z,20.33
2018-05-08T08:26:13.660Z,20.33
2018-05-08T08:27:15.562Z,20.39
2018-05-08T08:28:17.401Z,20.48
2018-05-08T08:29:19.233Z,20.57
2018-05-08T08:30:21.110Z,20.59
2018-05-08T08:31:22.983Z,20.57
2018-05-08T08:32:24.862Z,20.52
2018-05-08T08:33:39.009Z,20.54
2018-05-08T08:34:40.906Z,20.54
2018-05-08T08:35:42.781Z,20.51
2018-05-08T08:36:44.665Z,20.47
2018-05-08T08:37:46.500Z,20.35
2018-05-08T08:38:48.323Z,20.39
2018-05-08T08:39:50.218Z,20.41
2018-05-08T08:40:52.184Z,20.43
2018-05-08T08:41:54.048Z,20.54
2018-05-08T08:43:08.220Z,20.64
2018-05-08T08:44:10.116Z,20.84
2018-05-08T08:45:12.559Z,20.88
2018-05-08T08:46:15.152Z,20.94
2018-05-08T08:47:17.255Z,20.91
2018-05-08T08:48:19.706Z,20.89
2018-05-08T08:49:22.191Z,21.01
2018-05-08T08:50:24.729Z,20.92
2018-05-08T08:51:26.947Z,20.92
2018-05-08T08:52:41.646Z,20.99
2018-05-08T08:53:43.572Z,21.17
2018-05-08T08:54:46.161Z,21.07
2018-05-08T08:55:48.339Z,20.98
2018-05-08T08:56:50.611Z,20.98
2018-05-08T08:57:52.868Z,20.99
2018-05-08T08:58:55.545Z,21.06
2018-05-08T08:59:57.987Z,21.07
2018-05-08T09:01:00.160Z,21.12
2018-05-08T09:02:14.923Z,21.14
2018-05-08T09:03:17.170Z,21.29
2018-05-08T09:04:19.862Z,21.19
2018-05-08T09:05:22.884Z,21.19
2018-05-08T09:06:24.670Z,21.19
2018-05-08T09:07:26.479Z,21.29
2018-05-08T09:08:28.376Z,21.25
2018-05-08T09:09:30.272Z,21.28
2018-05-08T09:10:32.152Z,21.34
2018-05-08T09:11:46.366Z,21.44
2018-05-08T09:12:48.136Z,21.52
2018-05-08T09:13:50.037Z,21.53
2018-05-08T09:14:51.936Z,21.54
2018-05-08T09:15:53.789Z,21.56
2018-05-08T09:16:55.626Z,21.44
2018-05-08T09:17:57.446Z,21.43
2018-05-08T09:18:59.364Z,21.44
2018-05-08T09:20:01.259Z,21.43
2018-05-08T09:21:15.469Z,21.50
2018-05-08T09:22:17.349Z,21.46
2018-05-08T09:23:19.227Z,21.56
2018-05-08T09:24:21.134Z,21.54
2018-05-08T09:25:22.966Z,21.65
2018-05-08T09:26:24.806Z,21.64
2018-05-08T09:27:26.761Z,21.64
2018-05-08T09:28:28.595Z,21.61
2018-05-08T09:29:30.491Z,21.71
2018-05-08T09:30:44.641Z,21.69
2018-05-08T09:31:46.518Z,21.69
2018-05-08T09:32:48.411Z,21.69
2018-05-08T09:33:50.277Z,21.54
2018-05-08T09:34:52.092Z,21.62
2018-05-08T09:35:53.931Z,21.58
2018-05-08T09:36:55.828Z,21.52
2018-05-08T09:37:57.709Z,21.58
2018-05-08T09:38:59.610Z,21.61
2018-05-08T09:40:13.765Z,21.67
2018-05-08T09:41:15.665Z,21.64
2018-05-08T09:42:17.543Z,21.68
2018-05-08T09:43:19.424Z,21.79
2018-05-08T09:44:21.262Z,21.94
2018-05-08T09:45:23.080Z,21.96
2018-05-08T09:46:24.981Z,21.96
2018-05-08T09:47:26.877Z,21.98
2018-05-08T09:48:28.758Z,21.99
2018-05-08T09:49:42.930Z,22.06
2018-05-08T09:50:44.802Z,22.06
2018-05-08T09:51:46.677Z,22.02
2018-05-08T09:52:48.580Z,22.05
2018-05-08T09:53:50.417Z,21.98
2018-05-08T09:54:52.236Z,21.94
2018-05-08T09:55:54.135Z,21.98
2018-05-08T09:56:56.026Z,21.80
2018-05-08T09:57:57.909Z,21.80
2018-05-08T09:59:12.080Z,21.87
2018-05-08T10:00:13.958Z,21.84
2018-05-08T10:01:15.855Z,21.90
2018-05-08T10:02:17.734Z,21.90
2018-05-08T10:03:19.577Z,21.90
2018-05-08T10:04:21.493Z,21.90
2018-05-08T10:05:23.285Z,21.86
2018-05-08T10:06:25.180Z,21.92
2018-05-08T10:07:27.062Z,21.91
2018-05-08T10:08:41.299Z,21.94
2018-05-08T10:09:43.215Z,22.02
2018-05-08T10:10:45.114Z,22.09
2018-05-08T10:11:46.988Z,21.98
2018-05-08T10:12:48.803Z,22.03
2018-05-08T10:13:50.616Z,22.07
2018-05-08T10:14:52.487Z,21.96
2018-05-08T10:15:54.368Z,22.10
2018-05-08T10:16:56.267Z,22.06
2018-05-08T10:18:10.439Z,22.07
2018-05-08T10:19:12.317Z,22.17
2018-05-08T10:20:14.211Z,22.14
2018-05-08T10:21:16.091Z,22.24
2018-05-08T10:22:17.928Z,22.25
2018-05-08T10:23:19.743Z,22.31
2018-05-08T10:24:21.652Z,22.27
2018-05-08T10:25:23.546Z,22.24
2018-05-08T10:26:25.440Z,22.35
2018-05-08T10:27:39.595Z,22.42
2018-05-08T10:28:41.471Z,22.33
2018-05-08T10:29:43.347Z,22.40
2018-05-08T10:30:45.220Z,22.35
2018-05-08T10:31:47.037Z,22.52
2018-05-08T10:32:48.860Z,22.67
2018-05-08T10:33:50.732Z,22.72
2018-05-08T10:34:52.604Z,22.75
2018-05-08T10:35:54.480Z,22.70
2018-05-08T10:37:08.641Z,22.55
2018-05-08T10:38:10.533Z,22.55
2018-05-08T10:39:12.413Z,22.43
2018-05-08T10:40:14.285Z,22.43
2018-05-08T10:41:16.108Z,22.45
2018-05-08T10:42:17.914Z,22.42
2018-05-08T10:43:19.790Z,22.35
2018-05-08T10:44:21.671Z,22.36
2018-05-08T10:45:23.574Z,22.27
2018-05-08T10:46:37.726Z,22.47
2018-05-08T10:47:39.604Z,22.52
2018-05-08T10:48:41.499Z,22.47
2018-05-08T10:49:43.376Z,22.43
2018-05-08T10:50:45.200Z,22.31
2018-05-08T10:51:47.036Z,22.39
2018-05-08T10:52:48.932Z,22.27
2018-05-08T10:53:50.808Z,22.33
2018-05-08T10:54:52.682Z,22.33
2018-05-08T10:56:06.859Z,22.36
2018-05-08T10:57:08.754Z,22.39
2018-05-08T10:58:10.637Z,22.46
2018-05-08T10:59:12.515Z,22.58
2018-05-08T11:00:14.358Z,22.75
2018-05-08T11:01:16.192Z,22.73
2018-05-08T11:02:18.073Z,22.73
2018-05-08T11:03:20.005Z,22.73
2018-05-08T11:04:21.892Z,22.67
2018-05-08T11:05:36.042Z,22.72
2018-05-08T11:06:37.920Z,22.60
2018-05-08T11:07:39.796Z,22.58
2018-05-08T11:08:41.696Z,22.54
2018-05-08T11:09:43.533Z,22.49
2018-05-08T11:10:45.349Z,22.54
2018-05-08T11:11:47.232Z,22.62
2018-05-08T11:12:49.104Z,22.70
2018-05-08T11:13:51.005Z,22.76
2018-05-08T11:15:05.202Z,22.70
2018-05-08T11:16:07.149Z,22.82
2018-05-08T11:17:09.045Z,22.72
2018-05-08T11:18:10.956Z,22.72
2018-05-08T11:19:12.776Z,22.75
2018-05-08T11:20:14.611Z,22.68
2018-05-08T11:21:16.483Z,22.76
2018-05-08T11:22:18.364Z,22.72
2018-05-08T11:23:20.261Z,22.67
2018-05-08T11:24:34.417Z,22.76
2018-05-08T11:25:36.290Z,22.75
2018-05-08T11:26:38.277Z,22.76
2018-05-08T11:27:40.074Z,22.70
2018-05-08T11:28:41.887Z,22.72
2018-05-08T11:29:43.706Z,22.82
2018-05-08T11:30:45.605Z,22.83
2018-05-08T11:31:47.480Z,22.88
2018-05-08T11:32:49.355Z,22.91
2018-05-08T11:34:03.510Z,22.88
2018-05-08T11:35:05.382Z,22.83
2018-05-08T11:36:07.259Z,22.90
2018-05-08T11:37:09.149Z,22.88
2018-05-08T11:38:10.986Z,22.88
2018-05-08T11:39:12.852Z,22.97
2018-05-08T11:40:14.685Z,23.00
2018-05-08T11:41:16.629Z,22.94
2018-05-08T11:42:18.504Z,22.88
2018-05-08T11:43:32.655Z,23.09
2018-05-08T11:44:34.600Z,23.13
2018-05-08T11:45:36.424Z,23.19
2018-05-08T11:46:38.305Z,23.20
2018-05-08T11:47:40.145Z,23.16
2018-05-08T11:48:41.970Z,23.20
2018-05-08T11:49:43.872Z,23.07
2018-05-08T11:50:45.765Z,23.05
2018-05-08T11:51:47.648Z,23.05
2018-05-08T11:53:01.801Z,23.05
2018-05-08T11:54:03.697Z,23.13
2018-05-08T11:55:05.573Z,23.15
2018-05-08T11:56:07.454Z,23.23
2018-05-08T11:57:09.294Z,23.27
2018-05-08T11:58:11.109Z,23.36
2018-05-08T11:59:12.981Z,23.40
2018-05-08T12:00:14.870Z,23.46
2018-05-08T12:01:16.764Z,23.53
2018-05-08T12:02:30.944Z,23.53
2018-05-08T12:03:32.838Z,23.53
2018-05-08T12:04:34.741Z,23.60
2018-05-08T12:05:36.642Z,23.66
2018-05-08T12:06:38.481Z,23.76
2018-05-08T12:07:40.322Z,23.68
2018-05-08T12:08:42.215Z,23.65
2018-05-08T12:09:44.092Z,23.60
2018-05-08T12:10:45.968Z,23.61
2018-05-08T12:12:00.124Z,23.55
2018-05-08T12:13:02.000Z,23.55
2018-05-08T12:14:03.942Z,23.48
2018-05-08T12:15:05.835Z,23.54
2018-05-08T12:16:07.652Z,23.50
2018-05-08T12:17:09.469Z,23.38
2018-05-08T12:18:11.348Z,23.27
2018-05-08T12:19:13.228Z,23.23
2018-05-08T12:20:15.131Z,23.31
2018-05-08T12:21:29.280Z,23.27
2018-05-08T12:22:31.161Z,23.25
2018-05-08T12:23:33.058Z,23.15
2018-05-08T12:24:34.932Z,23.15
2018-05-08T12:25:36.803Z,23.16
2018-05-08T12:26:38.586Z,23.17
2018-05-08T12:27:40.468Z,23.20
2018-05-08T12:28:42.343Z,23.19
2018-05-08T12:29:44.222Z,23.15
2018-05-08T12:30:58.400Z,23.31
2018-05-08T12:32:00.268Z,23.27
2018-05-08T12:33:02.146Z,23.22
2018-05-08T12:34:04.045Z,23.27
2018-05-08T12:35:05.870Z,23.23
2018-05-08T12:36:07.790Z,23.27
2018-05-08T12:37:09.581Z,23.48
2018-05-08T12:38:11.458Z,23.48
2018-05-08T12:39:13.361Z,23.57
2018-05-08T12:40:27.534Z,23.51
2018-05-08T12:41:29.433Z,23.54
2018-05-08T12:42:31.330Z,23.39
2018-05-08T12:43:33.212Z,23.48
2018-05-08T12:44:35.024Z,23.55
2018-05-08T12:45:36.841Z,23.47
2018-05-08T12:46:38.718Z,23.35
2018-05-08T12:47:40.618Z,23.35
2018-05-08T12:48:42.512Z,23.38
2018-05-08T12:49:56.737Z,23.51
2018-05-08T12:50:58.539Z,23.51
2018-05-08T12:52:00.422Z,23.51
2018-05-08T12:53:02.320Z,23.60
2018-05-08T12:54:04.134Z,23.50
2018-05-08T12:55:05.952Z,23.51
2018-05-08T12:56:07.862Z,23.51
2018-05-08T12:57:09.724Z,23.61
2018-05-08T12:58:11.607Z,23.60
2018-05-08T12:59:25.760Z,23.66
2018-05-08T13:00:27.659Z,23.55
2018-05-08T13:01:29.537Z,23.63
2018-05-08T13:02:31.418Z,23.48
2018-05-08T13:03:33.231Z,23.51
2018-05-08T13:04:35.047Z,23.50
2018-05-08T13:05:36.929Z,23.51
2018-05-08T13:06:38.831Z,23.54
2018-05-08T13:07:40.729Z,23.53
2018-05-08T13:08:54.885Z,23.48
2018-05-08T13:09:56.762Z,23.42
2018-05-08T13:10:58.792Z,23.38
2018-05-08T13:12:00.523Z,23.39
2018-05-08T13:13:02.360Z,23.36
2018-05-08T13:14:04.173Z,23.40
2018-05-08T13:15:06.052Z,23.39
2018-05-08T13:16:07.928Z,23.36
2018-05-08T13:17:09.808Z,23.39
2018-05-08T13:18:24.015Z,23.53
2018-05-08T13:19:25.836Z,23.54
2018-05-08T13:20:27.739Z,23.55
2018-05-08T13:21:29.642Z,23.48
2018-05-08T13:22:31.486Z,23.53
2018-05-08T13:23:33.301Z,23.47
2018-05-08T13:24:35.203Z,23.55
2018-05-08T13:25:37.078Z,23.57
2018-05-08T13:26:38.980Z,23.75
2018-05-08T13:27:53.202Z,23.78
2018-05-08T13:28:55.025Z,23.87
2018-05-08T13:29:56.899Z,23.73
2018-05-08T13:30:58.850Z,23.75
2018-05-08T13:32:00.614Z,23.66
2018-05-08T13:33:02.448Z,23.61
2018-05-08T13:34:04.327Z,23.66
2018-05-08T13:35:06.204Z,23.65
2018-05-08T13:36:08.078Z,23.61
2018-05-08T13:37:22.250Z,23.61
2018-05-08T13:38:24.159Z,23.57
2018-05-08T13:39:26.041Z,23.60
2018-05-08T13:40:27.929Z,23.65
2018-05-08T13:41:29.772Z,23.63
2018-05-08T13:42:31.584Z,23.65
2018-05-08T13:43:33.476Z,23.58
2018-05-08T13:44:35.352Z,23.65
2018-05-08T13:45:37.227Z,23.68
2018-05-08T13:46:51.387Z,23.60
2018-05-08T13:47:53.284Z,23.57
2018-05-08T13:48:55.170Z,23.68
2018-05-08T13:49:57.073Z,23.70
2018-05-08T13:50:58.890Z,23.75
2018-05-08T13:52:00.736Z,23.58
2018-05-08T13:53:02.633Z,23.55
2018-05-08T13:54:04.516Z,23.55
2018-05-08T13:55:06.481Z,23.58
2018-05-08T13:56:20.561Z,23.65
2018-05-08T13:57:22.467Z,23.69
2018-05-08T13:58:24.342Z,23.70
2018-05-08T13:59:26.217Z,23.60
2018-05-08T14:00:28.034Z,23.63
2018-05-08T14:01:29.849Z,23.63
2018-05-08T14:02:31.748Z,23.66
2018-05-08T14:03:33.647Z,23.75
2018-05-08T14:04:35.526Z,23.65
2018-05-08T14:05:49.729Z,23.61
2018-05-08T14:06:51.644Z,23.60
2018-05-08T14:07:53.559Z,23.65
2018-05-08T14:08:55.423Z,23.66
2018-05-08T14:09:57.268Z,23.63
2018-05-08T14:10:59.107Z,23.72
2018-05-08T14:12:00.965Z,23.76
2018-05-08T14:13:02.901Z,23.66
2018-05-08T14:14:04.602Z,23.57
2018-05-08T14:15:18.809Z,23.65
2018-05-08T14:16:20.668Z,23.68
2018-05-08T14:17:22.545Z,23.63
2018-05-08T14:18:24.432Z,23.60
2018-05-08T14:19:26.395Z,23.66
2018-05-08T14:20:28.108Z,23.69
2018-05-08T14:21:30.005Z,23.66
2018-05-08T14:22:31.907Z,23.65
2018-05-08T14:23:33.812Z,23.63
2018-05-08T14:24:47.989Z,23.60
2018-05-08T14:25:49.856Z,23.69
2018-05-08T14:26:51.737Z,23.65
2018-05-08T14:27:53.639Z,23.73
2018-05-08T14:28:55.478Z,23.88
2018-05-08T14:29:57.298Z,23.90
2018-05-08T14:30:59.208Z,23.94
2018-05-08T14:32:01.069Z,24.03
2018-05-08T14:33:02.953Z,24.12
2018-05-08T14:34:17.127Z,24.06
2018-05-08T14:35:19.006Z,24.02
2018-05-08T14:36:20.881Z,23.98
2018-05-08T14:37:22.785Z,24.03
2018-05-08T14:38:24.636Z,24.03
2018-05-08T14:39:26.450Z,24.10
2018-05-08T14:40:28.332Z,24.02
2018-05-08T14:41:30.212Z,24.03
2018-05-08T14:42:32.098Z,23.94
2018-05-08T14:43:46.328Z,23.87
2018-05-08T14:44:48.123Z,23.94
2018-05-08T14:45:50.020Z,23.76
2018-05-08T14:46:51.924Z,23.83
2018-05-08T14:47:53.776Z,23.91
2018-05-08T14:48:55.600Z,23.88
2018-05-08T14:49:57.477Z,23.75
2018-05-08T14:50:59.359Z,23.76
2018-05-08T14:52:01.268Z,23.91
2018-05-08T14:53:15.441Z,23.80
2018-05-08T14:54:17.344Z,23.80
2018-05-08T14:55:19.243Z,23.76
2018-05-08T14:56:21.144Z,23.73
2018-05-08T14:57:22.968Z,23.88
2018-05-08T14:58:24.806Z,24.00
2018-05-08T14:59:26.707Z,24.05
2018-05-08T15:00:28.609Z,24.06
2018-05-08T15:01:30.485Z,24.09
2018-05-08T15:02:44.664Z,24.08
2018-05-08T15:03:46.570Z,24.02
2018-05-08T15:04:48.443Z,23.93
2018-05-08T15:05:50.317Z,23.91
2018-05-08T15:06:52.133Z,23.87
2018-05-08T15:07:53.970Z,23.79
2018-05-08T15:08:55.853Z,23.78
2018-05-08T15:09:57.744Z,23.78
2018-05-08T15:10:59.625Z,23.78
2018-05-08T15:12:13.778Z,23.95
2018-05-08T15:13:15.684Z,24.02
2018-05-08T15:14:17.576Z,24.18
2018-05-08T15:15:19.459Z,24.16
2018-05-08T15:16:21.280Z,24.18
2018-05-08T15:17:23.120Z,24.27
2018-05-08T15:18:25.020Z,24.09
2018-05-08T15:19:26.904Z,24.08
2018-05-08T15:20:28.800Z,24.00
2018-05-08T15:21:42.971Z,23.97
2018-05-08T15:22:44.832Z,23.85
2018-05-08T15:23:46.716Z,24.02
2018-05-08T15:24:48.615Z,24.03
2018-05-08T15:25:50.439Z,23.97
2018-05-08T15:26:52.255Z,23.95
2018-05-08T15:27:54.153Z,23.93
2018-05-08T15:28:56.026Z,24.00
2018-05-08T15:29:57.911Z,24.05
2018-05-08T15:31:12.063Z,24.15
2018-05-08T15:32:13.960Z,24.00
2018-05-08T15:33:15.842Z,24.06
2018-05-08T15:34:17.724Z,24.12
2018-05-08T15:35:19.538Z,24.15
2018-05-08T15:36:21.360Z,24.20
2018-05-08T15:37:23.258Z,24.21
2018-05-08T15:38:25.157Z,24.18
2018-05-08T15:39:27.058Z,24.18
2018-05-08T15:40:41.235Z,24.03
2018-05-08T15:41:43.132Z,23.94
2018-05-08T15:42:45.016Z,23.88
2018-05-08T15:43:46.911Z,23.85
2018-05-08T15:44:48.739Z,23.78
2018-05-08T15:45:50.570Z,23.83
2018-05-08T15:46:52.445Z,23.93
2018-05-08T15:47:54.321Z,23.95
2018-05-08T15:48:56.203Z,23.97
2018-05-08T15:50:10.380Z,24.00
2018-05-08T15:51:12.281Z,24.06
2018-05-08T15:52:14.161Z,24.10
2018-05-08T15:53:16.058Z,24.08
2018-05-08T15:54:17.881Z,24.09
2018-05-08T15:55:19.814Z,24.02
2018-05-08T15:56:21.595Z,24.08
2018-05-08T15:57:23.494Z,24.00
2018-05-08T15:58:25.367Z,24.15
2018-05-08T15:59:39.530Z,24.03
2018-05-08T16:00:41.405Z,24.10
2018-05-08T16:01:43.307Z,24.09
2018-05-08T16:02:45.209Z,24.02
2018-05-08T16:03:47.045Z,24.05
2018-05-08T16:04:48.865Z,24.00
2018-05-08T16:05:50.739Z,23.98
2018-05-08T16:06:52.619Z,23.94
2018-05-08T16:07:54.525Z,23.88
2018-05-08T16:09:08.694Z,23.76
2018-05-08T16:10:10.575Z,23.78
2018-05-08T16:11:12.474Z,23.78
2018-05-08T16:12:14.346Z,23.75
2018-05-08T16:13:16.164Z,23.72
2018-05-08T16:14:17.984Z,23.61
2018-05-08T16:15:19.887Z,23.55
2018-05-08T16:16:21.784Z,23.55
2018-05-08T16:17:23.661Z,23.60
2018-05-08T16:18:37.811Z,23.57
2018-05-08T16:19:39.686Z,23.55
2018-05-08T16:20:41.567Z,23.58
2018-05-08T16:21:43.471Z,23.63
2018-05-08T16:22:45.306Z,23.75
2018-05-08T16:23:47.128Z,23.79
2018-05-08T16:24:48.964Z,23.75
2018-05-08T16:25:50.776Z,23.76
2018-05-08T16:26:52.599Z,23.78
2018-05-08T16:28:06.789Z,23.90
2018-05-08T16:29:08.628Z,23.93
2018-05-08T16:30:10.546Z,24.05
2018-05-08T16:31:12.421Z,24.03
2018-05-08T16:32:14.258Z,24.08
2018-05-08T16:33:16.076Z,24.02
2018-05-08T16:34:17.957Z,24.03
2018-05-08T16:35:19.831Z,24.10
2018-05-08T16:36:21.711Z,24.21
2018-05-08T16:37:35.886Z,24.32
2018-05-08T16:38:37.785Z,24.49
2018-05-08T16:39:39.687Z,24.64
2018-05-08T16:40:41.590Z,24.76
2018-05-08T16:41:43.409Z,24.84
2018-05-08T16:42:45.261Z,24.90
2018-05-08T16:43:47.076Z,25.00
2018-05-08T16:44:48.977Z,25.13
2018-05-08T16:45:50.848Z,25.09
2018-05-08T16:47:05.007Z,25.17
2018-05-08T16:48:06.958Z,25.06
2018-05-08T16:49:08.800Z,25.05
2018-05-08T16:50:10.705Z,25.20
2018-05-08T16:51:12.545Z,25.36
2018-05-08T16:52:14.386Z,25.42
2018-05-08T16:53:16.286Z,25.61
2018-05-08T16:54:18.175Z,25.62
2018-05-08T16:55:20.069Z,25.73
2018-05-08T16:56:34.249Z,25.77
2018-05-08T16:57:36.149Z,25.83
2018-05-08T16:58:38.079Z,25.98
2018-05-08T16:59:39.985Z,26.23
2018-05-08T17:00:41.879Z,26.39
2018-05-08T17:01:43.719Z,26.66
2018-05-08T17:02:45.655Z,26.73
2018-05-08T17:03:47.557Z,26.87
2018-05-08T17:04:49.488Z,26.92
2018-05-08T17:06:03.607Z,26.92
2018-05-08T17:07:05.501Z,27.00
2018-05-08T17:08:07.469Z,26.97
2018-05-08T17:09:09.258Z,26.85
2018-05-08T17:10:11.077Z,26.94
2018-05-08T17:11:12.887Z,26.91
2018-05-08T17:12:14.771Z,26.99
2018-05-08T17:13:16.643Z,27.09
2018-05-08T17:14:18.521Z,27.03
2018-05-08T17:15:32.677Z,27.14
2018-05-08T17:16:34.561Z,27.13
2018-05-08T17:17:36.461Z,27.12
2018-05-08T17:18:38.341Z,27.22
2018-05-08T17:19:40.158Z,27.14
2018-05-08T17:20:41.977Z,27.17
2018-05-08T17:21:43.854Z,27.18
2018-05-08T17:22:45.737Z,27.14
2018-05-08T17:23:47.633Z,27.10
2018-05-08T17:25:01.786Z,27.29
2018-05-08T17:26:03.675Z,27.28
2018-05-08T17:27:05.581Z,27.29
2018-05-08T17:28:07.480Z,27.28
2018-05-08T17:29:09.332Z,27.13
2018-05-08T17:30:11.203Z,26.99
2018-05-08T17:31:13.134Z,27.04
2018-05-08T17:32:15.041Z,27.04
2018-05-08T17:33:16.990Z,27.07
2018-05-08T17:34:31.073Z,26.99
2018-05-08T17:35:32.950Z,27.00
2018-05-08T17:36:34.853Z,26.95
2018-05-08T17:37:36.755Z,26.97
2018-05-08T17:38:38.578Z,26.89
2018-05-08T17:39:40.395Z,26.82
2018-05-08T17:40:42.292Z,26.95
2018-05-08T17:41:44.171Z,26.89
2018-05-08T17:42:46.048Z,26.84
2018-05-08T17:44:00.256Z,26.75
2018-05-08T17:45:02.134Z,26.81
2018-05-08T17:46:04.014Z,26.55
2018-05-08T17:47:05.891Z,26.44
2018-05-08T17:48:07.708Z,26.43
2018-05-08T17:49:09.526Z,26.21
2018-05-08T17:50:11.408Z,26.21
2018-05-08T17:51:13.308Z,26.13
2018-05-08T17:52:15.205Z,26.13
2018-05-08T17:53:29.382Z,25.99
2018-05-08T17:54:31.262Z,25.94
2018-05-08T17:55:33.159Z,25.88
2018-05-08T17:56:35.039Z,25.87
2018-05-08T17:57:36.859Z,25.82
2018-05-08T17:58:38.674Z,25.73
2018-05-08T17:59:40.549Z,25.70
2018-05-08T18:00:42.427Z,25.70
2018-05-08T18:01:44.329Z,25.65
2018-05-08T18:02:58.481Z,25.60
2018-05-08T18:04:00.430Z,25.58
2018-05-08T18:05:02.257Z,25.47
2018-05-08T18:06:04.139Z,25.43
2018-05-08T18:07:05.959Z,25.38
2018-05-08T18:08:07.796Z,25.38
2018-05-08T18:09:09.694Z,25.35
2018-05-08T18:10:11.569Z,25.28
2018-05-08T18:11:13.446Z,25.13
2018-05-08T18:12:27.616Z,25.14
2018-05-08T18:13:29.505Z,25.02
2018-05-08T18:14:31.383Z,24.98
2018-05-08T18:15:33.282Z,24.93
2018-05-08T18:16:35.088Z,24.80
2018-05-08T18:17:37.072Z,24.68
2018-05-08T18:18:38.773Z,24.65
2018-05-08T18:19:40.651Z,24.49
2018-05-08T18:20:42.549Z,24.52
2018-05-08T18:21:56.707Z,24.42
2018-05-08T18:22:58.598Z,24.32
2018-05-08T18:24:00.502Z,24.31
2018-05-08T18:25:02.402Z,24.20
2018-05-08T18:26:04.230Z,24.18
2018-05-08T18:27:06.048Z,24.13
2018-05-08T18:28:07.949Z,24.08
2018-05-08T18:29:09.843Z,24.08
2018-05-08T18:30:11.720Z,23.95
2018-05-08T18:31:25.872Z,23.85
2018-05-08T18:32:27.766Z,23.85
2018-05-08T18:33:29.640Z,23.73
2018-05-08T18:34:31.531Z,23.72
2018-05-08T18:35:33.352Z,23.61
2018-05-08T18:36:35.183Z,23.51
2018-05-08T18:37:37.074Z,23.51
2018-05-08T18:38:38.992Z,23.43
2018-05-08T18:39:40.865Z,23.39
2018-05-08T18:40:55.039Z,23.38
2018-05-08T18:41:56.946Z,23.39
2018-05-08T18:42:58.830Z,23.38
2018-05-08T18:44:00.812Z,23.36
2018-05-08T18:45:02.555Z,23.42
2018-05-08T18:46:04.364Z,23.43
2018-05-08T18:47:06.258Z,23.35
2018-05-08T18:48:08.136Z,23.42
2018-05-08T18:49:10.031Z,23.33
2018-05-08T18:50:24.205Z,23.23
2018-05-08T18:51:26.102Z,23.27
2018-05-08T18:52:27.970Z,23.17
2018-05-08T18:53:29.850Z,23.16
2018-05-08T18:54:31.661Z,23.12
2018-05-08T18:55:33.471Z,23.19
2018-05-08T18:56:35.368Z,23.15
2018-05-08T18:57:37.338Z,23.16
2018-05-08T18:58:39.135Z,23.25
2018-05-08T18:59:53.304Z,23.31
2018-05-08T19:00:55.200Z,23.27
2018-05-08T19:01:57.072Z,23.35
2018-05-08T19:02:58.974Z,23.32
2018-05-08T19:04:00.784Z,23.28
2018-05-08T19:05:02.619Z,23.31
2018-05-08T19:06:04.495Z,23.28
2018-05-08T19:07:06.481Z,23.23
2018-05-08T19:08:08.260Z,23.28
2018-05-08T19:09:22.416Z,23.32
2018-05-08T19:10:24.283Z,23.31
2018-05-08T19:11:26.175Z,23.27
2018-05-08T19:12:28.064Z,23.33
2018-05-08T19:13:29.869Z,23.33
2018-05-08T19:14:31.701Z,23.31
2018-05-08T19:15:33.575Z,23.28
2018-05-08T19:16:35.469Z,23.25
2018-05-08T19:17:37.363Z,23.31
2018-05-08T19:18:51.536Z,23.27
2018-05-08T19:19:53.423Z,23.32
2018-05-08T19:20:55.358Z,23.27
2018-05-08T19:21:57.170Z,23.22
2018-05-08T19:22:58.979Z,23.27
2018-05-08T19:24:00.797Z,23.27
2018-05-08T19:25:02.688Z,23.38
2018-05-08T19:26:04.564Z,23.28
2018-05-08T19:27:06.432Z,23.31
2018-05-08T19:28:20.604Z,23.32
2018-05-08T19:29:22.503Z,23.33
2018-05-08T19:30:24.369Z,23.27
2018-05-08T19:31:26.242Z,23.27
2018-05-08T19:32:28.055Z,23.15
2018-05-08T19:33:29.864Z,23.15
2018-05-08T19:34:31.738Z,23.02
2018-05-08T19:35:33.606Z,22.97
2018-05-08T19:36:35.478Z,22.98
2018-05-08T19:37:49.649Z,23.01
2018-05-08T19:38:51.543Z,22.88
2018-05-08T19:39:53.424Z,22.94
2018-05-08T19:40:55.294Z,22.73
2018-05-08T19:41:57.100Z,22.91
2018-05-08T19:42:58.912Z,22.76
2018-05-08T19:44:00.783Z,22.65
2018-05-08T19:45:02.713Z,22.65
2018-05-08T19:46:04.527Z,22.55
2018-05-08T19:47:18.699Z,22.46
2018-05-08T19:48:20.594Z,22.47
2018-05-08T19:49:22.465Z,22.40
2018-05-08T19:50:24.342Z,22.35
2018-05-08T19:51:26.152Z,22.36
2018-05-08T19:52:28.040Z,22.36
2018-05-08T19:53:29.827Z,22.37
2018-05-08T19:54:31.659Z,22.30
2018-05-08T19:55:33.471Z,22.21
2018-05-08T19:56:47.612Z,22.14
2018-05-08T19:57:49.555Z,22.05
2018-05-08T19:58:51.358Z,22.03
2018-05-08T19:59:53.257Z,22.10
2018-05-08T20:00:55.068Z,21.98
2018-05-08T20:01:56.899Z,21.91
2018-05-08T20:02:58.804Z,21.92
2018-05-08T20:04:00.667Z,21.80
2018-05-08T20:05:02.561Z,21.80
2018-05-08T20:06:16.703Z,21.71
2018-05-08T20:07:18.590Z,21.59
2018-05-08T20:08:20.465Z,21.64
2018-05-08T20:09:22.343Z,21.62
2018-05-08T20:10:24.173Z,21.61
2018-05-08T20:11:25.983Z,21.53
